• Join FlightAware (Why Join?)
  • Login
  • US Flag 
11:24PM EDT


 

Airport Tracker/Info


-or-


 

Live Flight TrackerFlight Track Log ✈ DAL1246 ✈ 07-May-2012 ✈ KATL - KGSO

Flight Track Log - Related Links

Times and Time Zones

All times are in EDT time to prevent confusion due to time zone crossing. See the DAL1246 flight status page for this flight to view local times or setup timezone preferences in your user account.

Time Position Orientation Groundspeed Altitude Reporting Facility
EDT Latitude Longitude Course Direction KTS MPH feet Rate Location/Type
10:01AM 33.6500 -84.3667 59° Northeast 185 213 2,300  Level Atlanta TRACON
10:02AM 33.6833 -84.3000 64° Northeast 264 304 4,500 2,280 Climbing Atlanta TRACON
10:03AM 33.7167 -84.2167 68° East 264 304 6,900 2,280 Climbing Atlanta TRACON
10:05AM 33.7714 -84.0514 66° East 283 326 11,500 1,740 Climbing Atlanta Center
10:06AM 33.7964 -83.9839 70° East 277 319 12,300 780 Climbing Atlanta Center
10:07AM 33.8358 -83.8536 73° East 314 361 13,100 1,500 Climbing Atlanta Center
10:08AM 33.8669 -83.7336 70° East 356 410 15,300 1,980 Climbing Atlanta Center
10:09AM 33.9042 -83.6133 50° Northeast 376 433 17,100 1,620 Climbing Atlanta Center
10:10AM 33.9725 -83.5153 50° Northeast 371 427 18,600 1,500 Climbing Atlanta Center
10:11AM 34.0431 -83.4119 49° Northeast 391 450 20,100 1,320 Climbing Atlanta Center
10:12AM 34.1217 -83.3011 57° Northeast 391 450 21,300 1,380 Climbing Atlanta Center
10:13AM 34.1836 -83.1875 46° Northeast 409 471 22,900 780 Climbing Atlanta Center
10:14AM 34.2683 -83.0811 37° Northeast 409 471 22,900  Level Atlanta Center
10:15AM 34.3658 -82.9919 37° Northeast 424 488 23,000  Climbing Atlanta Center
10:16AM 34.4672 -82.9000 43° Northeast 441 507 23,000  Level Atlanta Center
10:17AM 34.5539 -82.8006 47° Northeast 447 514 23,000  Level Atlanta Center
10:18AM 34.6383 -82.6906 54° Northeast 432 497 23,000 240 Level Atlanta Center
10:19AM 34.7019 -82.5836 54° Northeast 432 497 23,500 840 Climbing Atlanta Center
10:20AM 34.7733 -82.4658 63° Northeast 432 497 24,800 1,080 Climbing Atlanta Center
10:21AM 34.8281 -82.3358 63° Northeast 427 491 25,700 1,020 Climbing Atlanta Center
10:22AM 34.8844 -82.2031 57° Northeast 427 491 26,900 1,140 Climbing Atlanta Center
10:23AM 34.9556 -82.0672 58° Northeast 433 498 28,000 420 Climbing Atlanta Center
10:24AM 35.0142 -81.9517 33° Northeast 439 505 27,800 -360 Descending Atlanta Center
10:25AM 35.1169 -81.8703 26° Northeast 434 499 27,300 -1,260 Descending Atlanta Center
10:26AM 35.2286 -81.8039 34° Northeast 435 501 25,300 -1,800 Descending Atlanta Center
10:27AM 35.3292 -81.7197 30° Northeast 435 501 23,800 -1,440 Descending Atlanta Center
10:28AM 35.4258 -81.6506 33° Northeast 413 475 22,500 -1,440 Descending Atlanta Center
10:29AM 35.5328 -81.5658 38° Northeast 408 470 21,000 -840 Descending Atlanta Center
10:30AM 35.6206 -81.4814 34° Northeast 401 461 20,900 -780 Descending Atlanta Center
10:31AM 35.7150 -81.4017 30° Northeast 406 467 19,500 -1,380 Descending Atlanta Center
10:32AM 35.8217 -81.3242 38° Northeast 425 489 18,200 -1,140 Descending Atlanta Center
10:33AM 35.9056 -81.2444 36° Northeast 425 489 17,300 -1,200 Descending Atlanta Center
10:34AM 35.9933 -81.1644 38° Northeast 408 470 15,900 -1,380 Descending Atlanta Center
10:35AM 36.0747 -81.0844 49° Northeast 385 443 14,600 -1,260 Descending Atlanta Center
10:36AM 36.1414 -80.9894 77° East 369 425 13,400 -1,320 Descending Atlanta Center
10:37AM 36.1633 -80.8703 95° East 349 402 12,000 -840 Descending Atlanta Center
10:39AM 36.1461 -80.6139 103° East 352 405 11,000 -360 Descending Atlanta Center
10:40AM 36.1239 -80.4939 100° East 352 405 11,000 -420 Level Atlanta Center
10:41AM 36.1083 -80.3892 101° East 352 405 10,200 -960 Descending Atlanta Center
10:42AM 36.0925 -80.2847 101° East 335 386 9,100 -1,200 Descending Atlanta Center
10:43AM 36.0772 -80.1903 80° East 302 348 7,900 -1,080 Descending Atlanta Center
10:44AM 36.0892 -80.1075 35° Northeast 278 320 7,000 -480 Descending Atlanta Center
10:45AM 36.1561 -80.0503 122° Southeast 225 259 7,000  Level Atlanta Center
10:53AM 35.7668 -79.2820 302° West  Level Estimated
10:54AM 36.1000 -79.9333 282° West  Level FlightAware Approximate
10:55AM 36.1192 -80.0465 102° East  Level Estimated
10:56AM 36.1000 -79.9333 282° West  Level FlightAware Approximate
10:57AM 36.1192 -80.0465 102° East  Level Estimated
10:58AM 36.1000 -79.9333 282° West  Level FlightAware Approximate
10:59AM 36.1192 -80.0465 102° East  Level Estimated
11:00AM 36.1000 -79.9333 102° East  Level FlightAware Approximate